createdAt,value
2017-07-10T00:00:04.322Z,0
2017-07-10T00:01:04.252Z,0
2017-07-10T00:02:04.227Z,0
2017-07-10T00:03:03.592Z,0
2017-07-10T00:04:04.191Z,0
2017-07-10T00:05:04.170Z,0
2017-07-10T00:06:03.888Z,0
2017-07-10T00:07:03.561Z,0
2017-07-10T00:08:04.120Z,0
2017-07-10T00:09:04.086Z,0
2017-07-10T00:10:04.079Z,0
2017-07-10T00:11:04.136Z,0
2017-07-10T00:12:04.037Z,0
2017-07-10T00:13:04.020Z,0
2017-07-10T00:14:03.385Z,0
2017-07-10T00:15:03.977Z,0
2017-07-10T00:16:03.653Z,0
2017-07-10T00:17:03.939Z,0
2017-07-10T00:18:03.598Z,0
2017-07-10T00:19:03.905Z,0
2017-07-10T00:20:03.885Z,0
2017-07-10T00:21:03.907Z,0
2017-07-10T00:22:03.843Z,0
2017-07-10T00:23:03.808Z,0
2017-07-10T00:24:03.792Z,0
2017-07-10T00:25:03.832Z,0
2017-07-10T00:26:03.752Z,0
2017-07-10T00:27:03.743Z,0
2017-07-10T00:28:03.726Z,0
2017-07-10T00:29:03.694Z,0
2017-07-10T00:30:03.371Z,0
2017-07-10T00:31:03.670Z,0
2017-07-10T00:32:03.334Z,0
2017-07-10T00:33:03.617Z,0
2017-07-10T00:34:03.904Z,0
2017-07-10T00:35:03.031Z,0
2017-07-10T00:36:03.264Z,0
2017-07-10T00:37:03.242Z,0
2017-07-10T00:38:03.533Z,0
2017-07-10T00:39:03.505Z,0
2017-07-10T00:40:03.733Z,0
2017-07-10T00:41:03.469Z,0
2017-07-10T00:42:03.137Z,0
2017-07-10T00:43:03.418Z,0
2017-07-10T00:44:03.402Z,0
2017-07-10T00:45:03.390Z,0
2017-07-10T00:46:03.059Z,0
2017-07-10T00:47:03.035Z,0
2017-07-10T00:48:03.326Z,0
2017-07-10T00:49:03.004Z,0
2017-07-10T00:50:03.636Z,0
2017-07-10T00:51:03.330Z,0
2017-07-10T00:52:03.253Z,0
2017-07-10T00:53:02.924Z,0
2017-07-10T00:54:03.218Z,0
2017-07-10T00:55:03.197Z,0
2017-07-10T00:56:03.174Z,0
2017-07-10T00:57:02.844Z,0
2017-07-10T00:58:02.515Z,0
2017-07-10T00:59:03.133Z,0
2017-07-10T01:00:02.781Z,0
2017-07-10T01:01:03.074Z,0
2017-07-10T01:02:03.055Z,0
2017-07-10T01:03:03.028Z,0
2017-07-10T01:04:03.006Z,0
2017-07-10T01:05:02.993Z,0
2017-07-10T01:06:02.973Z,0
2017-07-10T01:07:02.016Z,0
2017-07-10T01:08:02.632Z,0
2017-07-10T01:09:02.604Z,0
2017-07-10T01:10:02.904Z,0
2017-07-10T01:11:02.876Z,0
2017-07-10T01:12:02.554Z,0
2017-07-10T01:13:02.837Z,0
2017-07-10T01:14:02.508Z,0
2017-07-10T01:15:02.471Z,0
2017-07-10T01:16:02.768Z,0
2017-07-10T01:17:01.826Z,0
2017-07-10T01:18:02.729Z,0
2017-07-10T01:19:02.503Z,0
2017-07-10T01:20:02.694Z,0
2017-07-10T01:21:02.307Z,0
2017-07-10T01:22:02.644Z,0
2017-07-10T01:23:02.643Z,0
2017-07-10T01:24:02.606Z,0
2017-07-10T01:25:02.288Z,0
2017-07-10T01:26:02.567Z,0
2017-07-10T01:27:02.553Z,0
2017-07-10T01:28:02.225Z,0
2017-07-10T01:29:02.515Z,0
2017-07-10T01:30:02.190Z,0
2017-07-10T01:31:02.529Z,0
2017-07-10T01:32:02.456Z,0
2017-07-10T01:33:02.123Z,0
2017-07-10T01:34:02.105Z,0
2017-07-10T01:35:02.440Z,0
2017-07-10T01:36:02.070Z,0
2017-07-10T01:37:02.354Z,0
2017-07-10T01:38:01.714Z,0
2017-07-10T01:39:02.315Z,0
2017-07-10T01:40:02.285Z,0
2017-07-10T01:41:02.013Z,0
2017-07-10T01:42:01.951Z,0
2017-07-10T01:43:01.922Z,0
2017-07-10T01:44:02.221Z,0
2017-07-10T01:45:01.578Z,0
2017-07-10T01:46:02.172Z,0
2017-07-10T01:47:02.169Z,0
2017-07-10T01:48:01.841Z,0
2017-07-10T01:49:02.127Z,0
2017-07-10T01:50:02.089Z,0
2017-07-10T01:51:01.778Z,0
2017-07-10T01:52:01.749Z,0
2017-07-10T01:53:02.050Z,0
2017-07-10T01:54:01.714Z,0
2017-07-10T01:55:02.005Z,0
2017-07-10T01:56:01.360Z,0
2017-07-10T01:57:01.341Z,0
2017-07-10T01:58:01.940Z,0
2017-07-10T01:59:01.296Z,0
2017-07-10T02:00:01.907Z,0
2017-07-10T02:01:01.578Z,0
2017-07-10T02:02:01.548Z,0
2017-07-10T02:03:01.839Z,0
2017-07-10T02:04:01.834Z,0
2017-07-10T02:05:01.196Z,0
2017-07-10T02:06:01.782Z,0
2017-07-10T02:07:01.757Z,0
2017-07-10T02:08:01.742Z,0
2017-07-10T02:09:01.406Z,0
2017-07-10T02:10:01.756Z,0
2017-07-10T02:11:01.359Z,0
2017-07-10T02:12:01.605Z,0
2017-07-10T02:13:01.636Z,0
2017-07-10T02:14:01.620Z,0
2017-07-10T02:15:01.595Z,0
2017-07-10T02:16:01.287Z,0
2017-07-10T02:17:01.615Z,0
2017-07-10T02:18:01.538Z,0
2017-07-10T02:19:01.215Z,0
2017-07-10T02:20:01.501Z,0
2017-07-10T02:21:01.168Z,0
2017-07-10T02:22:01.165Z,0
2017-07-10T02:23:01.435Z,0
2017-07-10T02:24:01.414Z,0
2017-07-10T02:25:01.397Z,0
2017-07-10T02:26:01.436Z,0
2017-07-10T02:27:01.317Z,0
2017-07-10T02:28:01.042Z,0
2017-07-10T02:29:00.698Z,0
2017-07-10T02:30:01.307Z,0
2017-07-10T02:31:00.670Z,0
2017-07-10T02:32:01.311Z,0
2017-07-10T02:33:01.232Z,0
2017-07-10T02:34:01.214Z,0
2017-07-10T02:35:01.201Z,0
2017-07-10T02:36:01.172Z,0
2017-07-10T02:37:00.846Z,0
2017-07-10T02:38:00.823Z,0
2017-07-10T02:39:00.802Z,0
2017-07-10T02:40:00.492Z,0
2017-07-10T02:41:00.774Z,0
2017-07-10T02:42:00.749Z,0
2017-07-10T02:43:00.729Z,0
2017-07-10T02:44:00.722Z,0
2017-07-10T02:45:00.711Z,0
2017-07-10T02:46:00.368Z,0
2017-07-10T02:47:00.650Z,0
2017-07-10T02:48:00.988Z,0
2017-07-10T02:49:00.925Z,0
2017-07-10T02:50:00.902Z,0
2017-07-10T02:51:00.888Z,0
2017-07-10T02:52:00.549Z,0
2017-07-10T02:53:00.842Z,0
2017-07-10T02:54:00.824Z,0
2017-07-10T02:55:00.810Z,0
2017-07-10T02:56:00.478Z,0
2017-07-10T02:57:00.151Z,0
2017-07-10T02:58:00.123Z,0
2017-07-10T02:59:00.774Z,0
2017-07-10T03:00:00.705Z,0
2017-07-10T03:01:00.680Z,0
2017-07-10T03:02:00.732Z,0
2017-07-10T03:03:00.083Z,0
2017-07-10T03:04:00.319Z,0
2017-07-10T03:05:00.596Z,0
2017-07-10T03:06:00.582Z,0
2017-07-10T03:07:00.258Z,0
2017-07-10T03:08:00.563Z,0
2017-07-10T03:09:00.252Z,0
2017-07-10T03:09:59.883Z,0
2017-07-10T03:11:00.932Z,0
2017-07-10T03:12:00.152Z,0
2017-07-10T03:13:00.451Z,0
2017-07-10T03:14:00.113Z,0
2017-07-10T03:15:00.396Z,0
2017-07-10T03:16:00.543Z,0
2017-07-10T03:17:00.368Z,0
2017-07-10T03:18:00.178Z,0
2017-07-10T03:19:00.068Z,0
2017-07-10T03:20:00.286Z,0
2017-07-10T03:21:00.361Z,0
2017-07-10T03:22:00.262Z,0
2017-07-10T03:22:59.618Z,0
2017-07-10T03:24:00.219Z,0
2017-07-10T03:25:00.246Z,0
2017-07-10T03:26:00.182Z,0
2017-07-10T03:27:00.152Z,0
2017-07-10T03:28:01.034Z,0
2017-07-10T03:28:59.879Z,0
2017-07-10T03:30:00.252Z,0
2017-07-10T03:31:00.142Z,0
2017-07-10T03:32:02.630Z,0
2017-07-10T03:33:00.037Z,0
2017-07-10T03:34:00.025Z,0
2017-07-10T03:34:59.735Z,0
2017-07-10T03:35:59.671Z,0
2017-07-10T03:37:00.964Z,0
2017-07-10T03:37:59.948Z,0
2017-07-10T03:38:59.915Z,5
2017-07-10T03:39:59.592Z,5
2017-07-10T03:40:59.879Z,5
2017-07-10T03:41:59.865Z,5
2017-07-10T03:42:59.835Z,5
2017-07-10T03:43:59.563Z,5
2017-07-10T03:44:59.798Z,10
2017-07-10T03:45:59.789Z,10
2017-07-10T03:46:59.803Z,10
2017-07-10T03:47:59.738Z,10
2017-07-10T03:48:59.769Z,15
2017-07-10T03:49:59.395Z,15
2017-07-10T03:50:59.725Z,20
2017-07-10T03:51:59.407Z,25
2017-07-10T03:52:59.636Z,25
2017-07-10T03:53:59.561Z,30
2017-07-10T03:54:59.348Z,35
2017-07-10T03:55:59.586Z,35
2017-07-10T03:56:59.559Z,40
2017-07-10T03:57:59.542Z,40
2017-07-10T03:58:59.211Z,45
2017-07-10T03:59:59.505Z,45
2017-07-10T04:00:59.183Z,45
2017-07-10T04:01:59.156Z,45
2017-07-10T04:02:59.440Z,50
2017-07-10T04:03:59.428Z,50
2017-07-10T04:04:59.141Z,50
2017-07-10T04:05:59.380Z,50
2017-07-10T04:06:59.050Z,50
2017-07-10T04:07:59.337Z,50
2017-07-10T04:08:59.328Z,55
2017-07-10T04:09:58.378Z,55
2017-07-10T04:10:59.576Z,55
2017-07-10T04:11:58.960Z,55
2017-07-10T04:12:59.235Z,55
2017-07-10T04:13:59.223Z,60
2017-07-10T04:14:59.202Z,60
2017-07-10T04:15:58.875Z,65
2017-07-10T04:16:58.865Z,65
2017-07-10T04:17:59.146Z,65
2017-07-10T04:18:58.804Z,70
2017-07-10T04:19:59.103Z,70
2017-07-10T04:20:59.088Z,75
2017-07-10T04:21:59.057Z,75
2017-07-10T04:22:58.726Z,80
2017-07-10T04:23:58.092Z,85
2017-07-10T04:24:58.685Z,85
2017-07-10T04:25:58.987Z,85
2017-07-10T04:26:58.963Z,90
2017-07-10T04:27:58.636Z,90
2017-07-10T04:28:58.658Z,90
2017-07-10T04:29:58.592Z,85
2017-07-10T04:30:58.626Z,85
2017-07-10T04:31:58.867Z,85
2017-07-10T04:32:58.849Z,85
2017-07-10T04:33:58.820Z,80
2017-07-10T04:34:58.804Z,80
2017-07-10T04:35:58.164Z,80
2017-07-10T04:36:58.451Z,80
2017-07-10T04:37:58.744Z,80
2017-07-10T04:38:58.464Z,80
2017-07-10T04:39:58.397Z,80
2017-07-10T04:40:58.675Z,80
2017-07-10T04:41:58.666Z,80
2017-07-10T04:42:58.688Z,85
2017-07-10T04:43:58.623Z,90
2017-07-10T04:44:58.599Z,90
2017-07-10T04:45:58.282Z,95
2017-07-10T04:46:58.570Z,95
2017-07-10T04:47:58.804Z,95
2017-07-10T04:48:58.212Z,95
2017-07-10T04:49:58.191Z,95
2017-07-10T04:50:57.869Z,95
2017-07-10T04:51:58.161Z,95
2017-07-10T04:52:58.185Z,90
2017-07-10T04:53:58.424Z,90
2017-07-10T04:54:58.106Z,90
2017-07-10T04:55:58.390Z,90
2017-07-10T04:56:58.362Z,90
2017-07-10T04:57:58.347Z,90
2017-07-10T04:58:57.714Z,90
2017-07-10T04:59:58.000Z,90
2017-07-10T05:00:58.287Z,90
2017-07-10T05:01:58.010Z,90
2017-07-10T05:02:58.251Z,90
2017-07-10T05:03:58.226Z,90
2017-07-10T05:04:58.210Z,90
2017-07-10T05:05:58.189Z,85
2017-07-10T05:06:57.555Z,85
2017-07-10T05:07:58.148Z,85
2017-07-10T05:08:57.815Z,85
2017-07-10T05:09:57.806Z,85
2017-07-10T05:10:57.853Z,85
2017-07-10T05:11:58.186Z,85
2017-07-10T05:12:57.784Z,85
2017-07-10T05:13:58.031Z,80
2017-07-10T05:14:57.698Z,80
2017-07-10T05:15:57.999Z,80
2017-07-10T05:16:57.667Z,80
2017-07-10T05:17:57.642Z,80
2017-07-10T05:18:57.925Z,80
2017-07-10T05:19:57.905Z,80
2017-07-10T05:20:57.887Z,80
2017-07-10T05:21:57.559Z,80
2017-07-10T05:22:57.534Z,80
2017-07-10T05:23:57.516Z,80
2017-07-10T05:24:57.570Z,80
2017-07-10T05:25:57.839Z,85
2017-07-10T05:26:57.475Z,85
2017-07-10T05:27:57.822Z,85
2017-07-10T05:28:57.735Z,85
2017-07-10T05:29:57.958Z,85
2017-07-10T05:30:57.374Z,85
2017-07-10T05:31:57.367Z,85
2017-07-10T05:32:57.338Z,90
2017-07-10T05:33:57.634Z,90
2017-07-10T05:34:57.612Z,90
2017-07-10T05:35:57.582Z,95
2017-07-10T05:36:57.609Z,95
2017-07-10T05:37:57.545Z,100
2017-07-10T05:38:57.533Z,100
2017-07-10T05:39:57.508Z,105
2017-07-10T05:40:57.183Z,110
2017-07-10T05:41:57.469Z,110
2017-07-10T05:42:57.136Z,115
2017-07-10T05:43:57.433Z,115
2017-07-10T05:44:57.173Z,115
2017-07-10T05:45:57.409Z,120
2017-07-10T05:46:57.367Z,120
2017-07-10T05:47:57.356Z,125
2017-07-10T05:48:56.970Z,125
2017-07-10T05:49:57.319Z,125
2017-07-10T05:50:57.315Z,125
2017-07-10T05:51:57.272Z,125
2017-07-10T05:52:56.937Z,125
2017-07-10T05:53:56.923Z,125
2017-07-10T05:54:56.915Z,125
2017-07-10T05:55:57.248Z,125
2017-07-10T05:56:57.386Z,125
2017-07-10T05:57:56.835Z,125
2017-07-10T05:58:57.134Z,130
2017-07-10T05:59:57.119Z,130
2017-07-10T06:00:57.136Z,130
2017-07-10T06:01:57.071Z,135
2017-07-10T06:02:56.796Z,140
2017-07-10T06:03:57.036Z,140
2017-07-10T06:04:57.011Z,140
2017-07-10T06:05:56.999Z,150
2017-07-10T06:06:56.970Z,155
2017-07-10T06:07:56.953Z,150
2017-07-10T06:08:56.933Z,155
2017-07-10T06:09:56.918Z,155
2017-07-10T06:10:56.891Z,155
2017-07-10T06:11:56.882Z,155
2017-07-10T06:12:56.851Z,150
2017-07-10T06:13:56.521Z,150
2017-07-10T06:14:56.809Z,145
2017-07-10T06:15:56.804Z,150
2017-07-10T06:16:56.775Z,150
2017-07-10T06:17:56.745Z,150
2017-07-10T06:18:56.745Z,145
2017-07-10T06:19:56.409Z,145
2017-07-10T06:20:56.712Z,145
2017-07-10T06:21:56.720Z,145
2017-07-10T06:22:56.645Z,145
2017-07-10T06:23:56.682Z,140
2017-07-10T06:24:56.602Z,135
2017-07-10T06:25:56.595Z,135
2017-07-10T06:26:56.564Z,130
2017-07-10T06:27:56.550Z,130
2017-07-10T06:28:56.534Z,130
2017-07-10T06:29:56.524Z,130
2017-07-10T06:30:56.502Z,130
2017-07-10T06:31:56.482Z,130
2017-07-10T06:32:56.460Z,130
2017-07-10T06:33:56.471Z,130
2017-07-10T06:34:56.422Z,135
2017-07-10T06:35:56.403Z,135
2017-07-10T06:36:56.374Z,140
2017-07-10T06:37:56.353Z,150
2017-07-10T06:38:56.339Z,155
2017-07-10T06:39:56.315Z,160
2017-07-10T06:40:55.985Z,160
2017-07-10T06:41:55.961Z,165
2017-07-10T06:42:55.996Z,165
2017-07-10T06:43:56.237Z,170
2017-07-10T06:44:56.470Z,170
2017-07-10T06:45:56.187Z,175
2017-07-10T06:46:56.179Z,175
2017-07-10T06:47:56.167Z,175
2017-07-10T06:48:56.147Z,180
2017-07-10T06:49:56.134Z,185
2017-07-10T06:50:56.098Z,190
2017-07-10T06:51:56.083Z,195
2017-07-10T06:52:56.058Z,200
2017-07-10T06:53:56.088Z,205
2017-07-10T06:54:56.079Z,215
2017-07-10T06:55:55.699Z,225
2017-07-10T06:56:55.995Z,240
2017-07-10T06:57:55.956Z,265
2017-07-10T06:58:55.634Z,295
2017-07-10T06:59:55.914Z,320
2017-07-10T07:00:55.909Z,350
2017-07-10T07:01:55.885Z,365
2017-07-10T07:02:55.549Z,380
2017-07-10T07:03:55.835Z,390
2017-07-10T07:04:55.827Z,395
2017-07-10T07:05:55.914Z,385
2017-07-10T07:06:55.791Z,380
2017-07-10T07:07:55.850Z,370
2017-07-10T07:08:55.754Z,365
2017-07-10T07:09:55.727Z,350
2017-07-10T07:10:55.708Z,340
2017-07-10T07:11:55.687Z,330
2017-07-10T07:12:55.672Z,320
2017-07-10T07:13:55.648Z,310
2017-07-10T07:14:55.640Z,295
2017-07-10T07:15:55.717Z,280
2017-07-10T07:16:55.594Z,270
2017-07-10T07:17:55.276Z,270
2017-07-10T07:18:55.346Z,265
2017-07-10T07:19:55.543Z,265
2017-07-10T07:20:55.518Z,270
2017-07-10T07:21:55.514Z,265
2017-07-10T07:22:55.486Z,265
2017-07-10T07:23:55.454Z,270
2017-07-10T07:24:55.453Z,275
2017-07-10T07:25:55.434Z,275
2017-07-10T07:26:55.408Z,275
2017-07-10T07:27:55.375Z,270
2017-07-10T07:28:55.368Z,265
2017-07-10T07:29:55.349Z,260
2017-07-10T07:30:55.030Z,255
2017-07-10T07:31:55.376Z,245
2017-07-10T07:32:55.303Z,240
2017-07-10T07:33:55.270Z,225
2017-07-10T07:34:54.948Z,215
2017-07-10T07:35:55.279Z,205
2017-07-10T07:36:55.210Z,200
2017-07-10T07:37:55.198Z,195
2017-07-10T07:38:54.867Z,190
2017-07-10T07:39:55.161Z,190
2017-07-10T07:40:54.887Z,185
2017-07-10T07:41:54.834Z,185
2017-07-10T07:42:55.125Z,180
2017-07-10T07:43:55.086Z,180
2017-07-10T07:44:54.820Z,180
2017-07-10T07:45:56.151Z,175
2017-07-10T07:46:55.038Z,175
2017-07-10T07:47:55.007Z,180
2017-07-10T07:48:55.005Z,185
2017-07-10T07:49:54.972Z,185
2017-07-10T07:50:54.959Z,190
2017-07-10T07:51:54.994Z,190
2017-07-10T07:52:55.172Z,190
2017-07-10T07:53:54.952Z,185
2017-07-10T07:54:54.880Z,185
2017-07-10T07:55:55.005Z,175
2017-07-10T07:56:54.842Z,175
2017-07-10T07:57:54.884Z,180
2017-07-10T07:58:54.850Z,180
2017-07-10T07:59:54.786Z,185
2017-07-10T08:00:54.838Z,185
2017-07-10T08:01:54.438Z,185
2017-07-10T08:02:54.766Z,180
2017-07-10T08:03:54.770Z,180
2017-07-10T08:04:54.741Z,185
2017-07-10T08:05:54.676Z,190
2017-07-10T08:06:54.650Z,200
2017-07-10T08:07:54.634Z,215
2017-07-10T08:08:54.380Z,225
2017-07-10T08:09:54.656Z,225
2017-07-10T08:10:54.623Z,230
2017-07-10T08:11:54.565Z,230
2017-07-10T08:12:54.549Z,225
2017-07-10T08:13:54.579Z,220
2017-07-10T08:14:54.558Z,220
2017-07-10T08:15:54.488Z,220
2017-07-10T08:16:54.618Z,225
2017-07-10T08:17:54.447Z,225
2017-07-10T08:18:54.445Z,235
2017-07-10T08:19:54.504Z,230
2017-07-10T08:20:54.396Z,235
2017-07-10T08:21:54.380Z,225
2017-07-10T08:22:54.048Z,215
2017-07-10T08:23:54.337Z,205
2017-07-10T08:24:54.325Z,190
2017-07-10T08:25:54.306Z,180
2017-07-10T08:26:53.971Z,175
2017-07-10T08:27:54.289Z,165
2017-07-10T08:28:54.246Z,165
2017-07-10T08:29:53.715Z,160
2017-07-10T08:30:54.210Z,160
2017-07-10T08:31:53.872Z,160
2017-07-10T08:32:54.171Z,165
2017-07-10T08:33:54.157Z,165
2017-07-10T08:34:54.128Z,170
2017-07-10T08:35:54.123Z,170
2017-07-10T08:36:54.091Z,175
2017-07-10T08:37:54.324Z,175
2017-07-10T08:38:54.065Z,175
2017-07-10T08:39:54.294Z,185
2017-07-10T08:40:54.066Z,175
2017-07-10T08:41:54.003Z,175
2017-07-10T08:42:53.675Z,170
2017-07-10T08:43:53.664Z,170
2017-07-10T08:44:53.644Z,175
2017-07-10T08:45:53.911Z,180
2017-07-10T08:46:53.597Z,185
2017-07-10T08:47:53.599Z,190
2017-07-10T08:48:53.883Z,200
2017-07-10T08:49:53.595Z,205
2017-07-10T08:50:53.516Z,215
2017-07-10T08:51:53.824Z,220
2017-07-10T08:52:53.977Z,220
2017-07-10T08:53:53.769Z,225
2017-07-10T08:54:53.770Z,230
2017-07-10T08:55:53.630Z,240
2017-07-10T08:56:53.774Z,250
2017-07-10T08:57:53.412Z,265
2017-07-10T08:58:53.678Z,280
2017-07-10T08:59:53.734Z,295
2017-07-10T09:00:53.638Z,305
2017-07-10T09:01:53.649Z,320
2017-07-10T09:02:53.556Z,335
2017-07-10T09:03:53.693Z,350
2017-07-10T09:04:53.558Z,355
2017-07-10T09:05:53.695Z,365
2017-07-10T09:06:53.291Z,370
2017-07-10T09:07:53.514Z,375
2017-07-10T09:08:53.516Z,375
2017-07-10T09:09:53.171Z,375
2017-07-10T09:10:53.559Z,375
2017-07-10T09:11:53.473Z,390
2017-07-10T09:12:53.463Z,410
2017-07-10T09:13:53.728Z,430
2017-07-10T09:14:53.088Z,445
2017-07-10T09:15:53.586Z,475
2017-07-10T09:16:53.415Z,490
2017-07-10T09:17:53.069Z,505
2017-07-10T09:18:53.559Z,505
2017-07-10T09:19:53.300Z,500
2017-07-10T09:20:53.265Z,495
2017-07-10T09:21:53.305Z,495
2017-07-10T09:22:53.234Z,495
2017-07-10T09:23:53.259Z,495
2017-07-10T09:24:53.204Z,505
2017-07-10T09:25:53.190Z,505
2017-07-10T09:26:53.175Z,520
2017-07-10T09:27:53.153Z,530
2017-07-10T09:28:53.129Z,535
2017-07-10T09:29:53.119Z,545
2017-07-10T09:30:53.097Z,550
2017-07-10T09:31:53.384Z,545
2017-07-10T09:32:53.059Z,540
2017-07-10T09:33:53.043Z,535
2017-07-10T09:34:53.030Z,535
2017-07-10T09:35:53.014Z,545
2017-07-10T09:36:52.697Z,550
2017-07-10T09:37:52.998Z,550
2017-07-10T09:38:52.972Z,545
2017-07-10T09:39:52.630Z,545
2017-07-10T09:40:52.615Z,545
2017-07-10T09:41:52.929Z,555
2017-07-10T09:42:52.579Z,555
2017-07-10T09:43:52.992Z,550
2017-07-10T09:44:52.860Z,545
2017-07-10T09:45:52.850Z,545
2017-07-10T09:46:52.522Z,555
2017-07-10T09:47:52.821Z,565
2017-07-10T09:48:52.596Z,575
2017-07-10T09:49:52.472Z,590
2017-07-10T09:50:52.529Z,615
2017-07-10T09:51:52.736Z,645
2017-07-10T09:52:52.721Z,690
2017-07-10T09:53:52.734Z,725
2017-07-10T09:54:52.743Z,735
2017-07-10T09:55:52.675Z,730
2017-07-10T09:57:07.312Z,755
2017-07-10T09:57:52.637Z,795
2017-07-10T09:58:52.703Z,935
2017-07-10T09:59:52.628Z,1110
2017-07-10T10:00:52.600Z,1060
2017-07-10T10:01:52.573Z,1160
2017-07-10T10:02:52.257Z,1620
2017-07-10T10:03:52.547Z,1195
2017-07-10T10:04:52.793Z,1330
2017-07-10T10:05:54.167Z,1300
2017-07-10T10:06:52.760Z,1250
2017-07-10T10:07:52.503Z,1200
2017-07-10T10:08:52.165Z,1615
2017-07-10T10:09:52.462Z,1610
2017-07-10T10:10:52.198Z,2130
2017-07-10T10:11:52.130Z,1760
2017-07-10T10:12:52.472Z,1735
2017-07-10T10:13:52.533Z,1190
2017-07-10T10:14:52.411Z,1075
2017-07-10T10:15:52.391Z,1995
2017-07-10T10:16:52.061Z,2125
2017-07-10T10:17:52.076Z,2245
2017-07-10T10:18:52.051Z,2065
2017-07-10T10:19:52.344Z,2115
2017-07-10T10:20:52.687Z,1280
2017-07-10T10:21:52.313Z,1155
2017-07-10T10:22:55.565Z,940
2017-07-10T10:23:52.298Z,1430
2017-07-10T10:24:52.891Z,1985
2017-07-10T10:25:52.285Z,1790
2017-07-10T10:26:52.115Z,1910
2017-07-10T10:27:52.320Z,1860
2017-07-10T10:28:52.249Z,2000
2017-07-10T10:29:52.247Z,1575
2017-07-10T10:30:52.498Z,1615
2017-07-10T10:31:52.234Z,1655
2017-07-10T10:32:52.313Z,1415
2017-07-10T10:33:52.453Z,1115
2017-07-10T10:34:52.188Z,945
2017-07-10T10:35:52.201Z,895
2017-07-10T10:36:53.879Z,885
2017-07-10T10:37:52.166Z,910
2017-07-10T10:38:51.842Z,905
2017-07-10T10:39:52.155Z,880
2017-07-10T10:40:52.228Z,795
2017-07-10T10:41:52.379Z,760
2017-07-10T10:42:52.135Z,735
2017-07-10T10:43:52.181Z,690
2017-07-10T10:44:51.798Z,670
2017-07-10T10:45:51.795Z,660
2017-07-10T10:46:52.095Z,650
2017-07-10T10:47:51.809Z,645
2017-07-10T10:48:52.858Z,630
2017-07-10T10:49:52.250Z,630
2017-07-10T10:50:53.045Z,635
2017-07-10T10:51:52.033Z,650
2017-07-10T10:52:52.003Z,620
2017-07-10T10:53:52.017Z,610
2017-07-10T10:54:51.675Z,595
2017-07-10T10:55:51.982Z,590
2017-07-10T10:56:52.030Z,595
2017-07-10T10:57:52.010Z,600
2017-07-10T10:58:51.932Z,595
2017-07-10T10:59:51.920Z,580
2017-07-10T11:00:51.990Z,545
2017-07-10T11:01:51.906Z,510
2017-07-10T11:02:51.985Z,500
2017-07-10T11:03:51.875Z,530
2017-07-10T11:04:51.862Z,600
2017-07-10T11:05:51.838Z,595
2017-07-10T11:06:51.836Z,615
2017-07-10T11:07:51.827Z,960
2017-07-10T11:08:51.985Z,945
2017-07-10T11:09:51.786Z,980
2017-07-10T11:10:52.174Z,830
2017-07-10T11:11:51.771Z,785
2017-07-10T11:12:52.001Z,615
2017-07-10T11:13:51.477Z,575
2017-07-10T11:14:51.723Z,510
2017-07-10T11:15:51.713Z,485
2017-07-10T11:16:51.766Z,445
2017-07-10T11:17:51.991Z,420
2017-07-10T11:18:51.675Z,420
2017-07-10T11:19:51.654Z,440
2017-07-10T11:20:51.660Z,450
2017-07-10T11:21:51.628Z,460
2017-07-10T11:22:51.608Z,490
2017-07-10T11:23:51.606Z,515
2017-07-10T11:24:51.597Z,575
2017-07-10T11:25:51.690Z,635
2017-07-10T11:26:51.570Z,665
2017-07-10T11:27:51.232Z,715
2017-07-10T11:28:51.534Z,765
2017-07-10T11:29:51.196Z,780
2017-07-10T11:30:51.501Z,805
2017-07-10T11:31:51.476Z,820
2017-07-10T11:32:51.173Z,795
2017-07-10T11:33:51.156Z,790
2017-07-10T11:34:51.500Z,795
2017-07-10T11:35:51.121Z,755
2017-07-10T11:36:51.415Z,705
2017-07-10T11:37:51.402Z,650
2017-07-10T11:38:51.387Z,615
2017-07-10T11:39:51.363Z,585
2017-07-10T11:40:51.359Z,570
2017-07-10T11:41:51.346Z,580
2017-07-10T11:42:51.335Z,600
2017-07-10T11:43:51.196Z,620
2017-07-10T11:44:51.305Z,600
2017-07-10T11:45:51.325Z,505
2017-07-10T11:46:51.260Z,475
2017-07-10T11:47:51.312Z,440
2017-07-10T11:48:51.230Z,425
2017-07-10T11:49:51.243Z,425
2017-07-10T11:50:51.275Z,415
2017-07-10T11:51:51.194Z,410
2017-07-10T11:52:51.196Z,405
2017-07-10T11:53:50.861Z,370
2017-07-10T11:54:51.156Z,330
2017-07-10T11:55:51.145Z,310
2017-07-10T11:56:51.129Z,305
2017-07-10T11:57:51.115Z,330
2017-07-10T11:58:50.787Z,360
2017-07-10T11:59:51.145Z,395
2017-07-10T12:00:51.119Z,445
2017-07-10T12:01:51.056Z,475
2017-07-10T12:02:51.030Z,500
2017-07-10T12:03:51.180Z,500
2017-07-10T12:04:51.011Z,490
2017-07-10T12:05:50.984Z,470
2017-07-10T12:06:51.176Z,455
2017-07-10T12:07:50.971Z,450
2017-07-10T12:08:51.016Z,440
2017-07-10T12:09:51.137Z,435
2017-07-10T12:10:50.916Z,430
2017-07-10T12:11:51.000Z,435
2017-07-10T12:12:50.273Z,450
2017-07-10T12:13:50.662Z,470
2017-07-10T12:14:50.742Z,485
2017-07-10T12:15:50.822Z,500
2017-07-10T12:16:50.831Z,505
2017-07-10T12:17:50.808Z,500
2017-07-10T12:18:51.187Z,500
2017-07-10T12:19:50.777Z,505
2017-07-10T12:20:50.448Z,505
2017-07-10T12:21:50.437Z,515
2017-07-10T12:22:50.729Z,540
2017-07-10T12:23:50.768Z,600
2017-07-10T12:24:50.789Z,660
2017-07-10T12:25:50.683Z,740
2017-07-10T12:26:50.668Z,840
2017-07-10T12:27:50.656Z,945
2017-07-10T12:28:50.650Z,965
2017-07-10T12:29:50.865Z,880
2017-07-10T12:30:50.607Z,805
2017-07-10T12:31:50.639Z,760
2017-07-10T12:32:50.632Z,675
2017-07-10T12:33:50.571Z,650
2017-07-10T12:34:50.537Z,650
2017-07-10T12:35:50.536Z,635
2017-07-10T12:36:50.199Z,640
2017-07-10T12:37:50.500Z,735
2017-07-10T12:38:50.536Z,745
2017-07-10T12:39:50.478Z,695
2017-07-10T12:40:50.470Z,640
2017-07-10T12:41:50.451Z,565
2017-07-10T12:42:50.135Z,530
2017-07-10T12:43:50.540Z,485
2017-07-10T12:44:50.094Z,450
2017-07-10T12:45:50.394Z,420
2017-07-10T12:46:50.424Z,415
2017-07-10T12:47:50.167Z,405
2017-07-10T12:48:50.038Z,425
2017-07-10T12:49:50.331Z,445
2017-07-10T12:50:50.136Z,440
2017-07-10T12:51:50.100Z,395
2017-07-10T12:52:50.297Z,355
2017-07-10T12:53:50.266Z,360
2017-07-10T12:54:50.258Z,395
2017-07-10T12:55:50.241Z,440
2017-07-10T12:56:49.928Z,495
2017-07-10T12:57:49.601Z,440
2017-07-10T12:58:50.247Z,375
2017-07-10T12:59:50.194Z,325
2017-07-10T13:00:50.230Z,320
2017-07-10T13:01:50.161Z,335
2017-07-10T13:02:50.162Z,385
2017-07-10T13:03:50.138Z,395
2017-07-10T13:04:50.156Z,395
2017-07-10T13:05:50.402Z,350
2017-07-10T13:06:50.077Z,325
2017-07-10T13:07:49.741Z,310
2017-07-10T13:08:50.060Z,280
2017-07-10T13:09:50.382Z,265
2017-07-10T13:10:50.073Z,255
2017-07-10T13:11:49.794Z,245
2017-07-10T13:12:49.367Z,225
2017-07-10T13:13:49.985Z,195
2017-07-10T13:14:49.694Z,175
2017-07-10T13:15:49.950Z,160
2017-07-10T13:16:49.615Z,145
2017-07-10T13:17:49.904Z,140
2017-07-10T13:18:49.894Z,130
2017-07-10T13:19:49.874Z,125
2017-07-10T13:20:49.915Z,125
2017-07-10T13:21:49.842Z,130
2017-07-10T13:22:49.877Z,145
2017-07-10T13:23:49.500Z,175
2017-07-10T13:24:49.957Z,215
2017-07-10T13:25:48.846Z,240
2017-07-10T13:26:49.813Z,265
2017-07-10T13:27:49.744Z,295
2017-07-10T13:28:49.724Z,320
2017-07-10T13:29:49.461Z,345
2017-07-10T13:30:49.709Z,355
2017-07-10T13:31:49.690Z,370
2017-07-10T13:32:49.352Z,365
2017-07-10T13:33:49.641Z,370
2017-07-10T13:34:49.825Z,390
2017-07-10T13:35:49.629Z,435
2017-07-10T13:36:49.600Z,510
2017-07-10T13:37:49.595Z,565
2017-07-10T13:38:49.616Z,605
2017-07-10T13:39:49.755Z,650
2017-07-10T13:40:49.701Z,695
2017-07-10T13:41:49.516Z,665
2017-07-10T13:42:49.501Z,625
2017-07-10T13:43:49.484Z,585
2017-07-10T13:44:49.464Z,560
2017-07-10T13:45:49.456Z,530
2017-07-10T13:46:49.494Z,520
2017-07-10T13:47:49.415Z,500
2017-07-10T13:48:48.844Z,490
2017-07-10T13:49:48.780Z,480
2017-07-10T13:50:49.530Z,475
2017-07-10T13:51:49.077Z,460
2017-07-10T13:52:49.061Z,450
2017-07-10T13:53:49.333Z,445
2017-07-10T13:54:49.320Z,440
2017-07-10T13:55:49.290Z,440
2017-07-10T13:56:49.328Z,430
2017-07-10T13:57:49.259Z,410
2017-07-10T13:58:49.231Z,400
2017-07-10T13:59:49.237Z,400
2017-07-10T14:00:49.331Z,415
2017-07-10T14:01:49.210Z,460
2017-07-10T14:02:49.190Z,480
2017-07-10T14:03:49.259Z,480